createdAt,value
2019-03-30T00:00:51.081Z,5.50
2019-03-30T00:03:41.937Z,5.20
2019-03-30T00:06:25.386Z,4.67
2019-03-30T00:09:16.313Z,5.00
2019-03-30T00:11:59.705Z,4.57
2019-03-30T00:14:50.597Z,5.17
2019-03-30T00:17:34.154Z,5.20
2019-03-30T00:20:25.105Z,4.80
2019-03-30T00:23:08.030Z,6.13
2019-03-30T00:25:58.950Z,5.77
2019-03-30T00:28:42.283Z,7.23
2019-03-30T00:31:33.187Z,6.23
2019-03-30T00:34:16.452Z,5.67
2019-03-30T00:37:07.377Z,5.03
2019-03-30T00:39:51.048Z,5.70
2019-03-30T00:42:41.957Z,5.47
2019-03-30T00:45:24.922Z,5.20
2019-03-30T00:48:15.827Z,5.47
2019-03-30T00:50:59.479Z,5.30
2019-03-30T00:53:50.414Z,6.77
2019-03-30T00:56:34.038Z,6.80
2019-03-30T00:59:24.990Z,7.20
2019-03-30T01:02:08.674Z,5.03
2019-03-30T01:04:59.595Z,5.30
2019-03-30T01:07:43.388Z,5.20
2019-03-30T01:10:34.310Z,7.67
2019-03-30T01:13:17.785Z,5.97
2019-03-30T01:16:08.821Z,5.80
2019-03-30T01:18:52.367Z,6.73
2019-03-30T01:21:43.286Z,7.47
2019-03-30T01:24:26.849Z,6.33
2019-03-30T01:27:17.714Z,8.77
2019-03-30T01:30:00.643Z,7.73
2019-03-30T01:32:51.540Z,7.93
2019-03-30T01:35:34.759Z,7.43
2019-03-30T01:38:25.686Z,6.73
2019-03-30T01:41:08.835Z,8.10
2019-03-30T01:43:59.721Z,9.47
2019-03-30T01:46:42.640Z,9.27
2019-03-30T01:49:33.543Z,7.80
2019-03-30T01:52:16.627Z,7.53
2019-03-30T01:55:07.780Z,8.60
2019-03-30T01:57:51.682Z,8.57
2019-03-30T02:00:42.765Z,8.57
2019-03-30T02:03:25.810Z,8.10
2019-03-30T02:06:16.736Z,6.83
2019-03-30T02:08:59.789Z,9.60
2019-03-30T02:11:50.721Z,7.53
2019-03-30T02:14:33.708Z,7.73
2019-03-30T02:17:24.596Z,6.97
2019-03-30T02:20:08.175Z,8.43
2019-03-30T02:22:59.069Z,6.77
2019-03-30T02:25:42.440Z,9.27
2019-03-30T02:28:33.350Z,7.80
2019-03-30T02:31:16.305Z,7.27
2019-03-30T02:34:07.198Z,8.07
2019-03-30T02:36:50.810Z,7.80
2019-03-30T02:39:41.719Z,6.57
2019-03-30T02:42:25.013Z,7.53
2019-03-30T02:45:15.891Z,7.57
2019-03-30T02:47:58.933Z,7.27
2019-03-30T02:50:50.851Z,8.83
2019-03-30T02:53:54.774Z,9.40
2019-03-30T02:56:45.659Z,9.07
2019-03-30T02:59:29.369Z,6.57
2019-03-30T03:02:20.272Z,7.60
2019-03-30T03:05:03.017Z,9.30
2019-03-30T03:07:53.891Z,7.37
2019-03-30T03:10:37.558Z,6.70
2019-03-30T03:13:28.461Z,10.17
2019-03-30T03:16:11.790Z,6.90
2019-03-30T03:18:55.365Z,7.60
2019-03-30T03:21:46.265Z,9.10
2019-03-30T03:24:29.992Z,7.07
2019-03-30T03:27:20.866Z,8.17
2019-03-30T03:30:03.878Z,7.20
2019-03-30T03:32:54.787Z,8.50
2019-03-30T03:35:38.321Z,7.10
2019-03-30T03:38:29.229Z,7.53
2019-03-30T03:41:12.904Z,6.57
2019-03-30T03:44:03.810Z,7.60
2019-03-30T03:46:47.437Z,7.53
2019-03-30T03:49:38.328Z,7.27
2019-03-30T03:52:21.861Z,9.60
2019-03-30T03:55:05.413Z,7.53
2019-03-30T03:57:56.390Z,7.10
2019-03-30T04:00:39.882Z,9.60
2019-03-30T04:04:10.507Z,8.50
2019-03-30T04:06:55.516Z,8.60
2019-03-30T04:13:34.668Z,7.83
2019-03-30T04:16:25.572Z,7.83
2019-03-30T04:19:16.495Z,7.90
2019-03-30T04:22:07.408Z,8.40
2019-03-30T04:24:50.914Z,7.20
2019-03-30T04:27:41.834Z,8.40
2019-03-30T04:30:24.746Z,8.70
2019-03-30T04:33:15.674Z,8.00
2019-03-30T04:35:58.872Z,9.40
2019-03-30T04:38:49.780Z,8.90
2019-03-30T04:41:33.143Z,9.10
2019-03-30T04:44:24.068Z,7.80
2019-03-30T04:47:07.234Z,7.77
2019-03-30T04:49:58.152Z,8.27
2019-03-30T04:52:41.789Z,8.77
2019-03-30T04:55:32.693Z,8.50
2019-03-30T04:58:16.109Z,9.23
2019-03-30T05:01:07.016Z,7.87
2019-03-30T05:03:50.573Z,9.40
2019-03-30T05:06:41.502Z,8.67
2019-03-30T05:09:44.956Z,8.67
2019-03-30T05:12:35.828Z,7.87
2019-03-30T05:15:19.629Z,8.80
2019-03-30T05:18:10.602Z,8.93
2019-03-30T05:20:53.970Z,8.87
2019-03-30T05:23:44.843Z,8.17
2019-03-30T05:26:28.292Z,11.23
2019-03-30T05:29:19.199Z,9.53
2019-03-30T05:32:02.064Z,8.40
2019-03-30T05:34:52.990Z,9.87
2019-03-30T05:37:36.575Z,8.83
2019-03-30T05:40:19.380Z,10.97
2019-03-30T05:43:10.365Z,9.73
2019-03-30T05:45:53.626Z,8.40
2019-03-30T05:48:44.486Z,10.97
2019-03-30T05:51:27.892Z,9.70
2019-03-30T05:54:18.813Z,10.20
2019-03-30T05:57:01.717Z,8.93
2019-03-30T05:59:55.698Z,8.87
2019-03-30T06:02:57.757Z,12.27
2019-03-30T06:05:48.666Z,9.37
2019-03-30T06:11:23.050Z,9.83
2019-03-30T06:14:13.974Z,10.30
2019-03-30T06:16:56.993Z,9.90
2019-03-30T06:19:47.883Z,8.93
2019-03-30T06:22:40.271Z,9.10
2019-03-30T06:25:23.456Z,8.30
2019-03-30T06:28:06.997Z,10.93
2019-03-30T06:30:57.180Z,10.97
2019-03-30T06:33:40.426Z,10.07
2019-03-30T06:36:31.325Z,10.33
2019-03-30T06:39:14.695Z,9.57
2019-03-30T06:42:03.886Z,10.70
2019-03-30T06:44:46.981Z,10.67
2019-03-30T06:47:37.854Z,9.53
2019-03-30T06:50:20.716Z,12.43
2019-03-30T06:53:11.596Z,11.13
2019-03-30T06:55:55.317Z,11.53
2019-03-30T06:58:46.233Z,9.33
2019-03-30T07:01:30.073Z,10.20
2019-03-30T07:04:20.982Z,9.77
2019-03-30T07:07:03.813Z,9.10
2019-03-30T07:13:47.955Z,9.63
2019-03-30T07:16:33.006Z,11.03
2019-03-30T07:23:12.753Z,8.83
2019-03-30T07:26:03.905Z,10.30
2019-03-30T07:28:54.853Z,10.23
2019-03-30T07:31:38.188Z,10.43
2019-03-30T07:34:29.136Z,9.43
2019-03-30T07:40:03.937Z,11.27
2019-03-30T07:42:54.851Z,10.13
2019-03-30T07:45:37.664Z,9.93
2019-03-30T07:48:28.596Z,9.30
2019-03-30T07:51:11.846Z,9.77
2019-03-30T07:54:02.750Z,9.93
2019-03-30T07:59:36.838Z,9.70
2019-03-30T08:02:27.728Z,10.80
2019-03-30T08:05:11.283Z,9.33
2019-03-30T08:08:02.174Z,10.93
2019-03-30T08:10:45.060Z,11.13
2019-03-30T08:13:35.997Z,10.90
2019-03-30T08:16:38.912Z,9.20
2019-03-30T08:19:29.811Z,8.70
2019-03-30T08:22:13.023Z,9.00
2019-03-30T08:24:56.192Z,11.63
2019-03-30T08:27:47.091Z,10.00
2019-03-30T08:33:26.700Z,10.97
2019-03-30T08:36:10.021Z,9.63
2019-03-30T08:38:53.636Z,13.83
2019-03-30T08:41:44.495Z,11.20
2019-03-30T08:44:28.028Z,14.13
2019-03-30T08:47:18.934Z,9.90
2019-03-30T08:50:06.625Z,8.60
2019-03-30T08:52:57.548Z,9.77
2019-03-30T08:55:47.015Z,10.73
2019-03-30T08:58:30.622Z,8.47
2019-03-30T09:01:21.531Z,8.30
2019-03-30T09:04:05.376Z,9.70
2019-03-30T09:06:56.280Z,8.63
2019-03-30T09:09:39.549Z,7.97
2019-03-30T09:12:30.416Z,12.67
2019-03-30T09:15:13.383Z,10.23
2019-03-30T09:18:05.396Z,8.67
2019-03-30T09:20:48.222Z,9.03
2019-03-30T09:23:39.137Z,10.00
2019-03-30T09:26:22.742Z,8.60
2019-03-30T09:29:13.645Z,9.10
2019-03-30T09:32:14.334Z,10.30
2019-03-30T09:35:09.653Z,7.87
2019-03-30T09:38:00.546Z,9.03
2019-03-30T09:40:43.916Z,9.03
2019-03-30T09:43:37.415Z,9.97
2019-03-30T09:46:40.072Z,8.47
2019-03-30T09:49:30.992Z,7.00
2019-03-30T09:52:14.017Z,7.90
2019-03-30T09:55:05.294Z,10.00
2019-03-30T09:57:48.218Z,8.30
2019-03-30T10:00:31.171Z,8.47
2019-03-30T10:03:22.042Z,8.77
2019-03-30T10:06:05.142Z,9.67
2019-03-30T10:08:56.036Z,11.50
2019-03-30T10:11:38.830Z,9.80
2019-03-30T10:14:29.717Z,8.67
2019-03-30T10:17:13.869Z,9.73
2019-03-30T10:23:00.270Z,9.30
2019-03-30T10:25:43.812Z,11.63
2019-03-30T10:28:53.439Z,12.70
2019-03-30T10:31:37.028Z,14.53
2019-03-30T10:34:27.993Z,13.43
2019-03-30T10:37:11.597Z,15.23
2019-03-30T10:40:02.535Z,12.63
2019-03-30T10:42:45.813Z,15.03
2019-03-30T10:45:36.714Z,15.53
2019-03-30T10:48:20.146Z,11.97
2019-03-30T10:51:11.051Z,10.17
2019-03-30T10:53:54.243Z,12.83
2019-03-30T10:56:37.181Z,12.67
2019-03-30T10:59:28.098Z,13.77
2019-03-30T11:02:11.768Z,12.77
2019-03-30T11:05:02.676Z,9.87
2019-03-30T11:07:46.368Z,10.50
2019-03-30T11:10:37.267Z,13.70
2019-03-30T11:13:24.858Z,12.87
2019-03-30T11:16:15.713Z,10.27
2019-03-30T11:19:04.803Z,11.63
2019-03-30T11:21:48.025Z,11.07
2019-03-30T11:24:31.754Z,11.13
2019-03-30T11:27:22.658Z,11.13
2019-03-30T11:30:12.238Z,10.17
2019-03-30T11:32:55.774Z,11.37
2019-03-30T11:35:46.668Z,9.03
2019-03-30T11:38:29.655Z,7.70
2019-03-30T11:41:20.582Z,8.83
2019-03-30T11:44:04.251Z,8.93
2019-03-30T11:46:55.147Z,8.07
2019-03-30T11:49:38.014Z,6.97
2019-03-30T11:52:28.933Z,7.33
2019-03-30T11:55:21.765Z,7.33
2019-03-30T11:57:57.831Z,6.80
2019-03-30T12:00:48.734Z,7.03
2019-03-30T12:03:31.563Z,7.63
2019-03-30T12:06:22.518Z,8.70
2019-03-30T12:09:06.706Z,7.13
2019-03-30T12:11:57.642Z,9.20
2019-03-30T12:14:41.323Z,8.90
2019-03-30T12:17:32.262Z,7.93
2019-03-30T12:20:15.442Z,9.47
2019-03-30T12:23:06.366Z,6.93
2019-03-30T12:25:57.277Z,8.87
2019-03-30T12:28:48.172Z,9.33
2019-03-30T12:31:31.847Z,9.33
2019-03-30T12:34:22.755Z,9.13
2019-03-30T12:37:05.685Z,9.60
2019-03-30T12:39:58.255Z,8.57
2019-03-30T12:43:01.557Z,9.17
2019-03-30T12:45:52.471Z,7.53
2019-03-30T12:48:37.297Z,8.07
2019-03-30T12:51:28.202Z,7.57
2019-03-30T12:54:11.081Z,7.00
2019-03-30T12:57:02.020Z,9.27
2019-03-30T12:59:44.925Z,7.43
2019-03-30T13:09:57.669Z,7.90
2019-03-30T13:12:48.579Z,7.17
2019-03-30T13:15:31.620Z,8.10
2019-03-30T13:18:22.547Z,6.57
2019-03-30T13:21:05.896Z,6.83
2019-03-30T13:23:56.788Z,6.87
2019-03-30T13:26:40.635Z,7.10
2019-03-30T13:29:31.543Z,6.93
2019-03-30T13:32:14.606Z,6.30
2019-03-30T13:35:05.658Z,6.80
2019-03-30T13:37:48.967Z,7.40
2019-03-30T13:40:39.899Z,6.70
2019-03-30T13:43:26.842Z,6.37
2019-03-30T13:46:17.776Z,7.27
2019-03-30T13:49:01.134Z,7.57
2019-03-30T13:51:52.047Z,6.93
2019-03-30T13:54:54.906Z,5.93
2019-03-30T13:57:38.517Z,5.17
2019-03-30T14:00:22.082Z,6.33
2019-03-30T14:03:12.983Z,5.90
2019-03-30T14:05:56.052Z,5.90
2019-03-30T14:08:47.006Z,7.00
2019-03-30T14:11:19.116Z,5.90
2019-03-30T14:14:10.016Z,6.40
2019-03-30T14:16:52.903Z,7.80
2019-03-30T14:19:43.756Z,8.47
2019-03-30T14:22:27.180Z,7.17
2019-03-30T14:25:10.560Z,8.13
2019-03-30T14:28:01.514Z,6.83
2019-03-30T14:30:44.330Z,6.63
2019-03-30T14:33:35.251Z,6.43
2019-03-30T14:36:18.942Z,10.97
2019-03-30T14:39:09.921Z,6.50
2019-03-30T14:42:00.900Z,6.60
2019-03-30T14:44:43.686Z,7.57
2019-03-30T14:47:27.240Z,8.60
2019-03-30T14:50:18.234Z,8.53
2019-03-30T14:53:01.582Z,6.90
2019-03-30T14:55:52.528Z,7.10
2019-03-30T14:58:36.242Z,8.07
2019-03-30T15:01:27.111Z,9.17
2019-03-30T15:04:10.433Z,8.20
2019-03-30T15:07:01.418Z,9.50
2019-03-30T15:09:44.281Z,10.67
2019-03-30T15:12:35.194Z,7.83
2019-03-30T15:15:18.041Z,7.63
2019-03-30T15:18:08.953Z,7.10
2019-03-30T15:20:52.657Z,8.20
2019-03-30T15:23:43.563Z,9.63
2019-03-30T15:26:27.177Z,7.20
2019-03-30T15:29:18.076Z,7.17
2019-03-30T15:32:01.389Z,8.93
2019-03-30T15:34:52.295Z,7.10
2019-03-30T15:37:35.517Z,8.10
2019-03-30T15:40:26.440Z,8.37
2019-03-30T15:43:09.975Z,8.87
2019-03-30T15:46:00.914Z,8.87
2019-03-30T15:48:44.168Z,9.20
2019-03-30T15:51:37.523Z,9.03
2019-03-30T15:54:39.927Z,8.77
2019-03-30T15:57:30.868Z,9.83
2019-03-30T16:00:15.729Z,9.37
2019-03-30T16:03:06.670Z,8.97
2019-03-30T16:06:09.791Z,9.60
2019-03-30T16:09:00.710Z,8.77
2019-03-30T16:11:43.656Z,9.13
2019-03-30T16:14:34.579Z,8.93
2019-03-30T16:17:17.557Z,7.07
2019-03-30T16:20:28.884Z,7.10
2019-03-30T16:23:12.518Z,7.00
2019-03-30T16:26:03.421Z,8.33
2019-03-30T16:29:06.572Z,9.43
2019-03-30T16:32:14.936Z,9.83
2019-03-30T16:34:58.451Z,9.57
2019-03-30T16:37:49.329Z,9.67
2019-03-30T16:40:32.619Z,9.80
2019-03-30T16:43:23.539Z,8.80
2019-03-30T16:46:06.658Z,8.70
2019-03-30T16:48:57.530Z,9.10
2019-03-30T16:51:40.658Z,8.77
2019-03-30T16:54:31.504Z,13.10
2019-03-30T16:57:43.064Z,7.43
2019-03-30T17:04:14.928Z,7.10
2019-03-30T17:07:05.830Z,9.30
2019-03-30T17:09:56.738Z,10.73
2019-03-30T17:12:28.854Z,8.77
2019-03-30T17:15:00.948Z,12.53
2019-03-30T17:17:51.824Z,9.97
2019-03-30T17:20:35.684Z,9.70
2019-03-30T17:23:26.613Z,8.13
2019-03-30T17:26:09.672Z,8.63
2019-03-30T17:29:00.587Z,8.03
2019-03-30T17:31:43.961Z,8.77
2019-03-30T17:34:34.867Z,8.90
2019-03-30T17:37:18.030Z,8.50
2019-03-30T17:40:10.421Z,7.57
2019-03-30T17:42:53.854Z,7.97
2019-03-30T17:45:44.827Z,8.27
2019-03-30T17:48:28.293Z,8.50
2019-03-30T17:51:19.229Z,9.03
2019-03-30T17:54:02.742Z,10.43
2019-03-30T17:56:53.633Z,8.63
2019-03-30T17:59:36.703Z,10.00
2019-03-30T18:02:27.718Z,9.33
2019-03-30T18:05:11.084Z,8.63
2019-03-30T18:08:02.200Z,11.67
2019-03-30T18:10:51.151Z,9.00
2019-03-30T18:13:59.239Z,9.53
2019-03-30T18:16:46.980Z,10.53
2019-03-30T18:19:36.253Z,9.30
2019-03-30T18:25:11.196Z,10.30
2019-03-30T18:28:04.597Z,11.77
2019-03-30T18:30:47.484Z,9.97
2019-03-30T18:33:38.385Z,10.80
2019-03-30T18:36:27.040Z,10.63
2019-03-30T18:39:10.374Z,10.27
2019-03-30T18:42:01.358Z,9.90
2019-03-30T18:44:44.820Z,9.10
2019-03-30T18:47:35.755Z,11.30
2019-03-30T18:50:19.402Z,10.47
2019-03-30T18:56:13.938Z,9.80
2019-03-30T18:58:57.320Z,10.67
2019-03-30T19:01:48.277Z,10.57
2019-03-30T19:04:31.936Z,11.37
2019-03-30T19:07:22.859Z,11.70
2019-03-30T19:10:06.597Z,11.00
2019-03-30T19:12:57.517Z,12.57
2019-03-30T19:15:41.253Z,12.83
2019-03-30T19:18:32.131Z,12.77
2019-03-30T19:21:15.311Z,10.80
2019-03-30T19:24:25.028Z,12.00
2019-03-30T19:27:08.570Z,12.00
2019-03-30T19:29:58.014Z,11.63
2019-03-30T19:32:41.551Z,13.17
2019-03-30T19:35:32.451Z,13.97
2019-03-30T19:38:15.967Z,12.57
2019-03-30T19:41:06.853Z,11.87
2019-03-30T19:43:49.873Z,12.97
2019-03-30T19:46:22.053Z,12.60
2019-03-30T19:49:13.000Z,12.83
2019-03-30T19:51:55.839Z,12.63
2019-03-30T19:55:05.593Z,14.77
2019-03-30T19:57:48.550Z,13.53
2019-03-30T20:00:39.464Z,13.63
2019-03-30T20:03:22.599Z,16.03
2019-03-30T20:06:13.545Z,13.47
2019-03-30T20:08:56.732Z,13.93
2019-03-30T20:11:47.668Z,13.57
2019-03-30T20:14:31.100Z,14.17
2019-03-30T20:17:22.015Z,15.53
2019-03-30T20:20:05.489Z,14.23
2019-03-30T20:22:56.396Z,13.47
2019-03-30T20:25:39.540Z,13.60
2019-03-30T20:28:30.505Z,16.73
2019-03-30T20:31:13.530Z,15.03
2019-03-30T20:37:52.408Z,13.10
2019-03-30T20:40:43.335Z,14.17
2019-03-30T20:43:26.395Z,16.40
2019-03-30T20:46:17.371Z,13.40
2019-03-30T20:49:01.057Z,17.07
2019-03-30T20:51:51.989Z,14.33
2019-03-30T20:54:34.927Z,16.50
2019-03-30T20:57:17.948Z,15.57
2019-03-30T21:03:36.765Z,15.83
2019-03-30T21:06:27.636Z,18.43
2019-03-30T21:09:18.643Z,15.23
2019-03-30T21:12:02.099Z,16.90
2019-03-30T21:14:53.024Z,14.37
2019-03-30T21:17:35.966Z,14.73
2019-03-30T21:20:26.832Z,16.40
2019-03-30T21:23:10.072Z,15.93
2019-03-30T21:26:01.040Z,13.43
2019-03-30T21:29:11.876Z,13.67
2019-03-30T21:32:02.268Z,16.03
2019-03-30T21:34:53.200Z,17.20
2019-03-30T21:37:36.222Z,15.73
2019-03-30T21:40:27.146Z,12.50
2019-03-30T21:43:10.277Z,13.40
2019-03-30T21:46:01.227Z,15.03
2019-03-30T21:48:45.039Z,19.00
2019-03-30T21:51:35.967Z,17.67
2019-03-30T21:54:19.156Z,17.07
2019-03-30T21:57:10.091Z,15.13
2019-03-30T21:59:53.033Z,18.30
2019-03-30T22:02:43.953Z,20.37
2019-03-30T22:05:26.904Z,19.50
2019-03-30T22:08:17.806Z,19.90
2019-03-30T22:11:00.691Z,17.20
2019-03-30T22:13:51.635Z,15.97
2019-03-30T22:16:34.786Z,19.27
2019-03-30T22:19:06.909Z,17.90
2019-03-30T22:21:57.836Z,19.63
2019-03-30T22:24:48.740Z,18.90
2019-03-30T22:27:32.266Z,18.97
2019-03-30T22:30:24.966Z,20.33
2019-03-30T22:33:31.601Z,18.30
2019-03-30T22:39:24.754Z,18.97
2019-03-30T22:42:15.650Z,18.57
2019-03-30T22:44:59.320Z,16.10
2019-03-30T22:47:50.243Z,17.90
2019-03-30T22:50:33.984Z,21.63
2019-03-30T22:53:24.978Z,19.67
2019-03-30T22:56:08.576Z,18.53
2019-03-30T22:58:59.496Z,17.03
2019-03-30T23:01:42.434Z,19.23
2019-03-30T23:04:33.348Z,17.77
2019-03-30T23:07:16.865Z,17.57
2019-03-30T23:10:07.978Z,19.43
2019-03-30T23:12:51.291Z,16.77
2019-03-30T23:15:42.232Z,15.43
2019-03-30T23:18:25.178Z,19.10
2019-03-30T23:21:16.073Z,18.47
2019-03-30T23:23:59.083Z,17.67
2019-03-30T23:26:49.998Z,20.33
2019-03-30T23:29:33.158Z,19.70
2019-03-30T23:32:26.601Z,21.50
2019-03-30T23:35:09.702Z,18.70
2019-03-30T23:38:00.606Z,18.83
2019-03-30T23:40:44.357Z,28.27
2019-03-30T23:43:35.247Z,22.60
2019-03-30T23:46:18.886Z,18.07
2019-03-30T23:49:09.792Z,20.23
2019-03-30T23:51:53.620Z,19.07
2019-03-30T23:54:44.493Z,19.53
2019-03-30T23:57:27.712Z,19.90
